Insider Trading Report: Top 10 Insider sales of the month (page 1 of 4)

This insider trading report lists Top 10 Insider sales of the month, updated on October 17, 2014. (Actually we included top 50 insiders that scored the most in insider trading value).


Go to page:  1   2   3   4 
Top 10 Insider sales of the month, Updated October 17, 2014 (page 1 of 4) (Actually top 50 issuers are included)
Symbol Issuer Insider Name   Shares     Price     Value($)   Trade
Date
BURL Burlington Stores, Inc. Bekenstein Joshua (Director) 7,252,629 38.10 276,325,164 2014-10-10
  Hitch Jordan (Director) 7,252,629 38.10 276,325,164 2014-10-10
  Bain Capital Partners Ix, L.p. (10% Owner) 7,252,629 38.10 276,325,164 2014-10-10
  Patrick Tricia (Director) 7,252,629 38.10 276,325,164 2014-10-10
  Tang Paul C (Executive VP & General Counsel) 50,000 38.10 1,905,000 2014-10-10
HDS Hd Supply Holdings, Inc. Newman Margaret (Senior Vice President, HR) 25,242 27.35 690,368 2014-10-06
  Webb Jerry (CEO, HD Supply Waterworks) 90,000 26.97 2,427,300 2014-10-07
  Deangelo Joseph J (President and CEO) 117,050 29.00 3,394,450 2014-09-18
  Margolius Steven (Pres-HD Supply Power Solutions) 32,924 29.00 954,796 2014-09-18
  Stegeman John (President, HD Supply White Cap) 35,781 29.00 1,037,649 2014-09-18
  Nunez Ricardo J (Senior VP/GC & Corp Sec) 10,000 29.00 290,000 2014-09-18
  Cd&r Associates Vii (co-investment), Ltd (10% Owner) 8,166,416 27.52 224,715,269 2014-09-17
  Cp V Coinvestment B, L.p. (10% Owner) 8,168,655 27.52 224,776,879 2014-09-17
  Carlyle Holdings Ii L.p. (10% Owner) 8,168,655 27.52 224,776,879 2014-09-17
EVHC Envision Healthcare Holdings, Inc. Van Horne Edward (President of AMR) 9,900 35.00 346,500 2014-10-03
  Van Horne Edward (President of AMR) 300 35.00 10,500 2014-10-06
  Van Horne Edward (President of AMR) 10,606 34.67 367,710 2014-10-01
  Smith Michael L (Director) 7,000 34.97 244,790 2014-09-29
  Packard Dighton (Chief Medical Officer) 32,400 34.97 1,133,028 2014-09-29
  Cd&r Investment Associates Viii, Ltd. (10% Owner) 17,080,652 34.97 597,310,400 2014-09-29
  Van Horne Edward (President of AMR) 4,948 34.97 173,031 2014-09-29
  Ratton Steve W Jr (EVP, CSO & Treasurer) 25,000 34.97 874,250 2014-09-29
  Owen Randel G (EVP, COO and CFO) 150,000 34.97 5,245,500 2014-09-29
  Sanger William A (President and CEO) 200,000 34.97 6,994,000 2014-09-29
KOS Kosmos Energy Ltd. Krieger David Benjamin 8,250,000 9.33 76,972,500 2014-10-10
  Landy Joseph P. 24,451,437 9.33 228,131,907 2014-10-10
  Schwarzman Stephen A (10% Owner) 6,750,000 9.33 62,977,500 2014-10-10
  Blackstone Participation Partnership (cayman) Iv L.p. (10% Owner) 6,749,995 9.33 62,977,453 2014-10-10
OMAM Om Asset Management Plc Om Group (uk) Ltd 22,000,000 14.00 308,000,000 2014-10-15
YRCW Yellow Roadway Corp Carlyle Holdings Ii L.p. (10% Owner) 4,083,122 21.94 89,604,112 2014-09-18
  Csp Ii Coinvestment, L.p. (10% Owner) 4,083,122 21.94 89,604,112 2014-09-18
  Tc Group Sub L.p. (10% Owner) 4,083,122 21.94 89,604,112 2014-09-18
FMSA Fmsa Holdings Inc Fodo Joseph D. (See Remarks) 717,706 15.16 10,880,422 2014-10-08
  American Securities Llc 13,106,256 15.16 198,690,840 2014-10-08
  Deckard Jenniffer D. (President and CEO) 774,826 15.16 11,746,362 2014-10-08
  Smith Van T. (Executive Vice President) 78,200 15.16 1,185,512 2014-10-08
  Nagel Christopher L (See Remarks) 14,586 15.16 221,123 2014-10-08
  Conway William E. (Director) 116,620 15.16 1,767,959 2014-10-08
  Fowler Charles D. (Director) 1,753,516 15.16 26,583,302 2014-10-08
  Clancey Gerald L. (Executive Vice President) 717,604 15.16 10,878,876 2014-10-08
PF Pinnacle Foods Inc. Schiller Mark L. (EVP, Div. Pres - BEF Frozen) 5,000 32.22 161,100 2014-10-15
  Misericordia Lynne M. (SVP, Treas., Ass't Sec.) 2,500 32.22 80,550 2014-10-15
  Blackstone Management Associates V L.l.c. (10% Owner) 2,249,999 31.90 71,774,968 2014-10-14
  Schwarzman Stephen A (10% Owner) 2,249,999 31.90 71,774,968 2014-10-14
  Bcpv Pinnacle Holdings Llc (10% Owner) 2,249,999 31.90 71,774,968 2014-10-14
  Fernandez Antonio F. (EVP, CSC Officer) 3,035 32.57 98,849 2014-10-10
  Kroeger John F. (SVP, DGC, AS) 350 32.60 11,410 2014-10-01
N/A Medical Information Technology Inc Ruderman Morton E (Director) 155,555 6,999,975.00 1,088,881,111,125 2014-03-18
  Ruderman Morton E (Director) 155,555 6,999,975.00 1,088,881,111,125 2013-11-19
VEEV Veeva Systems Inc Codd Ronald E F (Director) 2,000 26.10 52,200 2014-10-16
  Armenante Mark (Director) 30,000 25.63 768,840 2014-10-14
  Armenante Mark (Director) 30,000 25.29 758,580 2014-10-15
  Sohn Young A (10% Owner) 27,500 25.74 707,850 2014-10-14
  Sohn Young A (10% Owner) 27,500 25.38 697,867 2014-10-15
  Wallach Matthew J (President) 53,717 27.72 1,489,303 2014-10-01
  Wallach Matthew J (President) 85,880 26.60 2,283,978 2014-10-02
  Armenante Mark (Director) 30,000 27.93 837,810 2014-10-01
  Armenante Mark (Director) 30,000 26.91 807,300 2014-10-02
  Sohn Young A (10% Owner) 25,906 27.86 721,689 2014-10-01
  Sohn Young A (10% Owner) 29,094 26.84 780,882 2014-10-02
  Wallach Matthew J (President) 53,717 27.72 1,489,303 2014-10-01
  Wallach Matthew J (President) 85,880 26.60 2,283,978 2014-10-02
  Emergence Gp Partners, Llc (Director) 1,000,000 28.25 28,250,000 2014-09-24
  Ritter Gordon (Director) 1,000,000 28.25 28,250,000 2014-09-24
  Emergence Gp Partners, Llc (Director) 2,000,000 28.60 57,200,000 2014-09-19
  Ritter Gordon (Director) 2,000,000 28.60 57,200,000 2014-09-19
  Cabral Timothy S (Chief Financial Officer) 30,000 29.44 883,080 2014-09-17
GOOG Google Inc. Page Lawrence (Chief Executive Officer) 33,332 530.68 17,688,559 2014-10-15
  Doerr L John (Director) 7,931 525.62 4,168,684 2014-10-15
  Page Lawrence (Chief Executive Officer) 33,332 546.02 18,199,871 2014-10-14
  Page Lawrence (Chief Executive Officer) 33,332 547.18 18,238,537 2014-10-13
  Drummond David C (SVP, Corporate Development) 290 549.88 159,463 2014-10-13
  Pichette Patrick (SVP & Chief Financial Officer) 290 549.88 159,463 2014-10-13
  Brin Sergey (Co-Founder) 166,668 574.50 95,751,099 2014-10-07
  Pichette Patrick (SVP & Chief Financial Officer) 2,886 584.17 1,685,914 2014-10-06
AAPL Apple Computer Inc Williams Jeffrey E (Senior Vice President) 348,846 101.00 35,233,446 2014-09-22
  Sewell D Bruce (SVP, Gen'l Counsel, Secretary) 348,846 101.46 35,393,915 2014-09-22
  Cook Timothy D (Chief Executive Officer) 348,425 101.42 35,337,263 2014-09-22
  Schiller Philip W (Senior Vice President) 348,846 101.08 35,261,353 2014-09-22
W Wayfair Inc. Kumin Michael Andrew 994,021 27.26 27,097,012 2014-10-07
  Vettel Matthew T 994,021 27.26 27,097,012 2014-10-07
  Agrawal Neeraj (Director) 552,233 27.26 15,053,871 2014-10-07
  Tobin Scott R (10% Owner) 552,233 27.26 15,053,871 2014-10-07
  Battery Ventures Ix (aiv I), L.p. (10% Owner) 552,233 27.26 15,053,871 2014-10-07
  Harbourvest Partners Llc (10% Owner) 603,746 29.00 17,508,634 2014-10-07
FANG Diamondback Energy, Inc. White Jeffrey L. (VP Operations) 9,000 76.35 687,141 2014-09-30
  Wexford Gp Llc 1,437,500 75.44 108,445,000 2014-09-23
DOOR Masonite International Corp Coulter Glenwood E Jr (See Remarks) 500 54.58 27,290 2014-10-14
  Repar Lawrence P (See Remarks) 15,084 55.05 830,374 2014-10-07
  Repar Lawrence P (See Remarks) 15,148 56.17 850,863 2014-09-26
  Mount Kellett Capital Management Lp 1,360,000 55.50 75,480,000 2014-09-17
  Oaktree Capital Group, Llc 150,000 57.00 8,550,000 2014-09-16
FB Facebook Inc Stretch Colin (VP, Gen. Counsel & Secretary) 5,264 72.20 380,050 2014-10-15
  Cox Christopher K (Chief Product Officer) 31,283 72.18 2,257,975 2014-10-15
  Sandberg Sheryl (Chief Operating Officer) 283,334 73.24 20,750,532 2014-10-14
  Sandberg Sheryl (Chief Operating Officer) 39,104 72.16 2,821,940 2014-10-15
  Schroepfer Michael Todd (Chief Technology Officer) 31,283 72.16 2,257,412 2014-10-15
  Athwal Jas (Chief Accounting Officer) 3,446 72.02 248,180 2014-10-15
  Fischer David B. (VP Marketing & Bus. Part.) 18,000 76.57 1,378,296 2014-10-08
  Fischer David B. (VP Marketing & Bus. Part.) 18,000 76.77 1,381,806 2014-10-09
  Cox Christopher K (Chief Product Officer) 5,437 77.17 419,573 2014-10-06
  Schroepfer Michael Todd (Chief Technology Officer) 35,000 77.07 2,697,449 2014-10-07
  Cox Christopher K (Chief Product Officer) 5,934 77.49 459,819 2014-10-01
  Sandberg Sheryl (Chief Operating Officer) 283,334 76.68 21,725,201 2014-10-02
  Sandberg Sheryl (Chief Operating Officer) 283,334 78.36 22,202,052 2014-09-24
  Schroepfer Michael Todd (Chief Technology Officer) 35,000 77.00 2,695,000 2014-09-22
  Fischer David B. (VP Marketing & Bus. Part.) 18,000 76.51 1,377,144 2014-09-17
  Fischer David B. (VP Marketing & Bus. Part.) 18,000 76.96 1,385,244 2014-09-18
VRTX Vertex Pharmaceuticals Inc / Ma Boger Joshua S (Director) 5,700 100.66 573,773 2014-10-15
  Silva Paul M (SVP & Corp Controller) 1,125 107.81 121,289 2014-10-13
  Chodakewitz Jeffrey (EVP GMDA, CMO) 3,436 104.44 358,845 2014-10-07
  Altshuler David (Director) 1,405 109.75 154,198 2014-10-06
  Ullian Elaine (Director) 5,000 108.92 544,615 2014-10-01
  Altshuler David (Director) 10,595 109.08 1,155,702 2014-10-01
  Arbuckle Stuart A (EVP\Chief Commercial Officer) 12,417 108.80 1,350,969 2014-10-01
  Boger Joshua S (Director) 5,700 108.04 615,850 2014-10-01
  Connolly Thomas (SVP, Human Resources) 750 109.03 81,774 2014-10-01
  Horton Kenneth L (EVP & Chief Legal Officer) 36,000 112.64 4,055,040 2014-09-30
  Leiden Jeffrey M (CEO & President) 200,000 112.63 22,526,000 2014-09-30
  Sachdev Amit (SVP, Global Gov. Strategy) 86,000 112.65 9,687,728 2014-09-30
Go to page:  1   2   3   4